sensor_id;sensor_type;location;lat;lon;timestamp;P1;durP1;ratioP1;P2;durP2;ratioP2
69334;SDS011;56477;52.742;15.242;2022-09-09T00:01:00;20.85;;;10.65;;
69334;SDS011;56477;52.742;15.242;2022-09-09T00:03:44;20.10;;;11.43;;
69334;SDS011;56477;52.742;15.242;2022-09-09T00:09:00;18.50;;;10.57;;
69334;SDS011;56477;52.742;15.242;2022-09-09T00:17:30;22.52;;;12.32;;
69334;SDS011;56477;52.742;15.242;2022-09-09T00:22:28;21.53;;;12.43;;
69334;SDS011;56477;52.742;15.242;2022-09-09T00:25:45;23.77;;;12.63;;
69334;SDS011;56477;52.742;15.242;2022-09-09T00:28:16;20.30;;;10.68;;
69334;SDS011;56477;52.742;15.242;2022-09-09T00:30:45;23.42;;;12.65;;
69334;SDS011;56477;52.742;15.242;2022-09-09T00:33:15;28.02;;;14.15;;
69334;SDS011;56477;52.742;15.242;2022-09-09T00:35:45;22.20;;;10.80;;
69334;SDS011;56477;52.742;15.242;2022-09-09T00:38:18;27.10;;;13.88;;
69334;SDS011;56477;52.742;15.242;2022-09-09T00:43:26;29.45;;;14.38;;
69334;SDS011;56477;52.742;15.242;2022-09-09T00:46:25;30.58;;;16.23;;
69334;SDS011;56477;52.742;15.242;2022-09-09T00:49:31;29.50;;;15.50;;
69334;SDS011;56477;52.742;15.242;2022-09-09T01:02:29;31.70;;;15.30;;
69334;SDS011;56477;52.742;15.242;2022-09-09T01:05:13;33.58;;;15.85;;
69334;SDS011;56477;52.742;15.242;2022-09-09T01:08:06;32.42;;;14.77;;
69334;SDS011;56477;52.742;15.242;2022-09-09T01:10:47;31.75;;;16.08;;
69334;SDS011;56477;52.742;15.242;2022-09-09T01:13:24;28.65;;;13.30;;
69334;SDS011;56477;52.742;15.242;2022-09-09T01:15:50;32.53;;;15.20;;
69334;SDS011;56477;52.742;15.242;2022-09-09T01:18:20;33.70;;;16.60;;
69334;SDS011;56477;52.742;15.242;2022-09-09T01:20:59;38.53;;;17.38;;
69334;SDS011;56477;52.742;15.242;2022-09-09T01:28:53;36.63;;;16.43;;
69334;SDS011;56477;52.742;15.242;2022-09-09T01:31:30;34.63;;;16.25;;
69334;SDS011;56477;52.742;15.242;2022-09-09T01:34:01;32.70;;;15.77;;
69334;SDS011;56477;52.742;15.242;2022-09-09T01:39:03;33.10;;;14.80;;
69334;SDS011;56477;52.742;15.242;2022-09-09T01:41:29;35.60;;;16.55;;
69334;SDS011;56477;52.742;15.242;2022-09-09T01:43:55;39.55;;;18.27;;
69334;SDS011;56477;52.742;15.242;2022-09-09T01:46:22;35.47;;;16.70;;
69334;SDS011;56477;52.742;15.242;2022-09-09T01:48:51;32.67;;;14.52;;
69334;SDS011;56477;52.742;15.242;2022-09-09T01:51:19;33.97;;;16.03;;
69334;SDS011;56477;52.742;15.242;2022-09-09T01:53:45;38.28;;;16.70;;
69334;SDS011;56477;52.742;15.242;2022-09-09T02:01:28;31.73;;;15.57;;
69334;SDS011;56477;52.742;15.242;2022-09-09T02:03:58;31.30;;;15.63;;
69334;SDS011;56477;52.742;15.242;2022-09-09T02:06:30;33.25;;;17.23;;
69334;SDS011;56477;52.742;15.242;2022-09-09T02:09:01;32.38;;;15.35;;
69334;SDS011;56477;52.742;15.242;2022-09-09T02:11:30;35.17;;;16.35;;
69334;SDS011;56477;52.742;15.242;2022-09-09T02:13:57;35.50;;;16.73;;
69334;SDS011;56477;52.742;15.242;2022-09-09T02:19:32;36.88;;;16.27;;
69334;SDS011;56477;52.742;15.242;2022-09-09T02:22:00;32.90;;;15.93;;
69334;SDS011;56477;52.742;15.242;2022-09-09T02:24:28;32.97;;;15.90;;
69334;SDS011;56477;52.742;15.242;2022-09-09T02:26:56;33.88;;;15.57;;
69334;SDS011;56477;52.742;15.242;2022-09-09T02:29:25;29.03;;;14.83;;
69334;SDS011;56477;52.742;15.242;2022-09-09T02:32:06;30.73;;;14.50;;
69334;SDS011;56477;52.742;15.242;2022-09-09T02:34:36;32.53;;;15.60;;
69334;SDS011;56477;52.742;15.242;2022-09-09T02:37:08;33.88;;;15.68;;
69334;SDS011;56477;52.742;15.242;2022-09-09T02:39:36;35.08;;;16.27;;
69334;SDS011;56477;52.742;15.242;2022-09-09T02:42:03;27.77;;;14.03;;
69334;SDS011;56477;52.742;15.242;2022-09-09T02:44:30;31.42;;;14.82;;
69334;SDS011;56477;52.742;15.242;2022-09-09T02:55:18;28.77;;;14.50;;
69334;SDS011;56477;52.742;15.242;2022-09-09T02:57:49;29.20;;;14.23;;
69334;SDS011;56477;52.742;15.242;2022-09-09T03:00:22;33.50;;;15.70;;
69334;SDS011;56477;52.742;15.242;2022-09-09T03:02:49;30.80;;;14.90;;
69334;SDS011;56477;52.742;15.242;2022-09-09T03:05:16;27.65;;;14.32;;
69334;SDS011;56477;52.742;15.242;2022-09-09T03:07:42;34.00;;;15.83;;
69334;SDS011;56477;52.742;15.242;2022-09-09T03:10:08;32.75;;;15.27;;
69334;SDS011;56477;52.742;15.242;2022-09-09T03:12:35;33.42;;;15.90;;
69334;SDS011;56477;52.742;15.242;2022-09-09T03:15:02;35.67;;;16.48;;
69334;SDS011;56477;52.742;15.242;2022-09-09T03:17:28;40.60;;;16.67;;
69334;SDS011;56477;52.742;15.242;2022-09-09T03:19:53;37.50;;;16.15;;
69334;SDS011;56477;52.742;15.242;2022-09-09T03:22:20;39.28;;;17.02;;
69334;SDS011;56477;52.742;15.242;2022-09-09T03:24:46;40.40;;;16.55;;
69334;SDS011;56477;52.742;15.242;2022-09-09T03:27:12;38.50;;;16.20;;
69334;SDS011;56477;52.742;15.242;2022-09-09T03:29:40;34.45;;;16.73;;
69334;SDS011;56477;52.742;15.242;2022-09-09T03:32:05;36.90;;;15.50;;
69334;SDS011;56477;52.742;15.242;2022-09-09T03:34:31;34.43;;;16.37;;
69334;SDS011;56477;52.742;15.242;2022-09-09T03:36:57;33.80;;;16.07;;
69334;SDS011;56477;52.742;15.242;2022-09-09T03:39:23;33.08;;;15.27;;
69334;SDS011;56477;52.742;15.242;2022-09-09T03:41:49;34.83;;;15.05;;
69334;SDS011;56477;52.742;15.242;2022-09-09T03:44:15;33.13;;;15.67;;
69334;SDS011;56477;52.742;15.242;2022-09-09T03:46:41;28.08;;;14.13;;
69334;SDS011;56477;52.742;15.242;2022-09-09T03:49:06;29.75;;;14.85;;
69334;SDS011;56477;52.742;15.242;2022-09-09T03:51:33;29.23;;;14.83;;
69334;SDS011;56477;52.742;15.242;2022-09-09T03:54:02;31.25;;;14.48;;
69334;SDS011;56477;52.742;15.242;2022-09-09T03:56:30;27.15;;;13.38;;
69334;SDS011;56477;52.742;15.242;2022-09-09T03:58:57;27.73;;;13.77;;
69334;SDS011;56477;52.742;15.242;2022-09-09T04:01:23;28.03;;;14.27;;
69334;SDS011;56477;52.742;15.242;2022-09-09T04:03:49;26.42;;;13.35;;
69334;SDS011;56477;52.742;15.242;2022-09-09T04:06:16;26.65;;;14.10;;
69334;SDS011;56477;52.742;15.242;2022-09-09T04:08:43;27.33;;;13.65;;
69334;SDS011;56477;52.742;15.242;2022-09-09T04:11:10;28.85;;;13.65;;
69334;SDS011;56477;52.742;15.242;2022-09-09T04:13:37;26.47;;;13.17;;
69334;SDS011;56477;52.742;15.242;2022-09-09T04:16:04;25.33;;;12.77;;
69334;SDS011;56477;52.742;15.242;2022-09-09T04:18:30;27.33;;;13.88;;
69334;SDS011;56477;52.742;15.242;2022-09-09T04:20:57;26.65;;;13.52;;
69334;SDS011;56477;52.742;15.242;2022-09-09T04:23:24;25.02;;;11.63;;
69334;SDS011;56477;52.742;15.242;2022-09-09T04:25:57;22.33;;;12.37;;
69334;SDS011;56477;52.742;15.242;2022-09-09T04:28:24;23.98;;;12.00;;
69334;SDS011;56477;52.742;15.242;2022-09-09T04:30:52;22.55;;;11.77;;
69334;SDS011;56477;52.742;15.242;2022-09-09T04:33:18;23.52;;;11.95;;
69334;SDS011;56477;52.742;15.242;2022-09-09T04:35:46;24.08;;;12.43;;
69334;SDS011;56477;52.742;15.242;2022-09-09T04:38:13;24.20;;;11.83;;
69334;SDS011;56477;52.742;15.242;2022-09-09T04:40:41;21.13;;;11.75;;
69334;SDS011;56477;52.742;15.242;2022-09-09T04:43:08;21.33;;;11.73;;
69334;SDS011;56477;52.742;15.242;2022-09-09T04:45:35;22.75;;;11.88;;
69334;SDS011;56477;52.742;15.242;2022-09-09T04:48:00;25.13;;;13.33;;
69334;SDS011;56477;52.742;15.242;2022-09-09T04:50:28;23.33;;;12.57;;
69334;SDS011;56477;52.742;15.242;2022-09-09T04:52:54;22.55;;;12.00;;
69334;SDS011;56477;52.742;15.242;2022-09-09T04:55:19;17.98;;;10.55;;
69334;SDS011;56477;52.742;15.242;2022-09-09T04:57:45;21.93;;;12.10;;
69334;SDS011;56477;52.742;15.242;2022-09-09T05:00:12;19.38;;;11.45;;
69334;SDS011;56477;52.742;15.242;2022-09-09T05:02:39;24.92;;;11.45;;
69334;SDS011;56477;52.742;15.242;2022-09-09T05:05:08;34.78;;;10.98;;
69334;SDS011;56477;52.742;15.242;2022-09-09T05:07:33;125.60;;;14.80;;
69334;SDS011;56477;52.742;15.242;2022-09-09T05:09:59;72.27;;;12.63;;
69334;SDS011;56477;52.742;15.242;2022-09-09T05:12:25;41.70;;;13.32;;
69334;SDS011;56477;52.742;15.242;2022-09-09T05:14:52;33.92;;;11.88;;
69334;SDS011;56477;52.742;15.242;2022-09-09T05:17:18;27.40;;;11.50;;
69334;SDS011;56477;52.742;15.242;2022-09-09T05:19:44;26.60;;;10.20;;
69334;SDS011;56477;52.742;15.242;2022-09-09T05:22:10;19.73;;;11.00;;
69334;SDS011;56477;52.742;15.242;2022-09-09T05:24:37;17.15;;;10.35;;
69334;SDS011;56477;52.742;15.242;2022-09-09T05:27:06;20.27;;;10.38;;
69334;SDS011;56477;52.742;15.242;2022-09-09T05:29:32;19.83;;;11.37;;
69334;SDS011;56477;52.742;15.242;2022-09-09T05:32:01;20.33;;;11.30;;
69334;SDS011;56477;52.742;15.242;2022-09-09T05:34:27;23.23;;;11.40;;
69334;SDS011;56477;52.742;15.242;2022-09-09T05:36:55;26.58;;;10.45;;
69334;SDS011;56477;52.742;15.242;2022-09-09T05:39:21;37.83;;;11.40;;
69334;SDS011;56477;52.742;15.242;2022-09-09T05:41:47;34.65;;;10.65;;
69334;SDS011;56477;52.742;15.242;2022-09-09T05:44:13;43.88;;;10.77;;
69334;SDS011;56477;52.742;15.242;2022-09-09T05:46:39;20.50;;;10.30;;
69334;SDS011;56477;52.742;15.242;2022-09-09T05:49:05;26.13;;;9.83;;
69334;SDS011;56477;52.742;15.242;2022-09-09T05:51:31;31.05;;;10.18;;
69334;SDS011;56477;52.742;15.242;2022-09-09T05:53:57;17.08;;;9.35;;
69334;SDS011;56477;52.742;15.242;2022-09-09T05:56:27;19.13;;;9.80;;
69334;SDS011;56477;52.742;15.242;2022-09-09T05:58:54;22.30;;;12.10;;
69334;SDS011;56477;52.742;15.242;2022-09-09T06:01:22;21.48;;;11.27;;
69334;SDS011;56477;52.742;15.242;2022-09-09T06:03:50;35.10;;;14.95;;
69334;SDS011;56477;52.742;15.242;2022-09-09T06:06:18;29.40;;;11.50;;
69334;SDS011;56477;52.742;15.242;2022-09-09T06:08:46;34.88;;;11.23;;
69334;SDS011;56477;52.742;15.242;2022-09-09T06:11:18;25.30;;;9.97;;
69334;SDS011;56477;52.742;15.242;2022-09-09T06:13:47;20.23;;;10.07;;
69334;SDS011;56477;52.742;15.242;2022-09-09T06:16:14;19.40;;;10.20;;
69334;SDS011;56477;52.742;15.242;2022-09-09T06:18:42;19.05;;;10.70;;
69334;SDS011;56477;52.742;15.242;2022-09-09T06:21:09;24.50;;;10.95;;
69334;SDS011;56477;52.742;15.242;2022-09-09T06:23:40;21.63;;;10.47;;
69334;SDS011;56477;52.742;15.242;2022-09-09T06:26:09;20.42;;;11.52;;
69334;SDS011;56477;52.742;15.242;2022-09-09T06:28:37;31.38;;;11.63;;
69334;SDS011;56477;52.742;15.242;2022-09-09T06:31:04;19.15;;;10.20;;
69334;SDS011;56477;52.742;15.242;2022-09-09T06:33:33;21.95;;;11.50;;
69334;SDS011;56477;52.742;15.242;2022-09-09T06:36:01;19.47;;;10.53;;
69334;SDS011;56477;52.742;15.242;2022-09-09T06:38:29;15.52;;;10.13;;
69334;SDS011;56477;52.742;15.242;2022-09-09T06:40:56;20.33;;;9.43;;
69334;SDS011;56477;52.742;15.242;2022-09-09T06:43:23;16.77;;;9.77;;
69334;SDS011;56477;52.742;15.242;2022-09-09T06:46:26;17.20;;;9.57;;
69334;SDS011;56477;52.742;15.242;2022-09-09T06:48:47;15.70;;;9.60;;
69334;SDS011;56477;52.742;15.242;2022-09-09T06:51:15;14.70;;;9.07;;
69334;SDS011;56477;52.742;15.242;2022-09-09T06:53:43;13.82;;;9.38;;
69334;SDS011;56477;52.742;15.242;2022-09-09T07:01:03;11.80;;;7.17;;
69334;SDS011;56477;52.742;15.242;2022-09-09T07:03:33;11.40;;;7.97;;
69334;SDS011;56477;52.742;15.242;2022-09-09T07:05:59;10.73;;;7.10;;
69334;SDS011;56477;52.742;15.242;2022-09-09T07:08:25;10.10;;;6.88;;
69334;SDS011;56477;52.742;15.242;2022-09-09T07:10:52;10.40;;;6.90;;
69334;SDS011;56477;52.742;15.242;2022-09-09T07:13:23;8.07;;;6.17;;
69334;SDS011;56477;52.742;15.242;2022-09-09T07:15:51;9.35;;;5.97;;
69334;SDS011;56477;52.742;15.242;2022-09-09T07:18:17;6.50;;;5.18;;
69334;SDS011;56477;52.742;15.242;2022-09-09T07:20:52;6.78;;;4.97;;
69334;SDS011;56477;52.742;15.242;2022-09-09T07:23:19;6.80;;;5.65;;
69334;SDS011;56477;52.742;15.242;2022-09-09T07:25:45;5.60;;;5.00;;
69334;SDS011;56477;52.742;15.242;2022-09-09T07:28:11;7.30;;;5.18;;
69334;SDS011;56477;52.742;15.242;2022-09-09T07:30:37;9.70;;;5.18;;
69334;SDS011;56477;52.742;15.242;2022-09-09T07:33:03;6.53;;;5.00;;
69334;SDS011;56477;52.742;15.242;2022-09-09T07:35:29;7.57;;;5.13;;
69334;SDS011;56477;52.742;15.242;2022-09-09T07:37:55;8.25;;;5.50;;
69334;SDS011;56477;52.742;15.242;2022-09-09T07:40:21;6.18;;;4.65;;
69334;SDS011;56477;52.742;15.242;2022-09-09T07:42:47;6.67;;;4.60;;
69334;SDS011;56477;52.742;15.242;2022-09-09T07:45:13;6.32;;;4.72;;
69334;SDS011;56477;52.742;15.242;2022-09-09T07:47:39;6.10;;;5.10;;
69334;SDS011;56477;52.742;15.242;2022-09-09T07:50:08;7.30;;;5.00;;
69334;SDS011;56477;52.742;15.242;2022-09-09T07:52:35;7.00;;;5.57;;
69334;SDS011;56477;52.742;15.242;2022-09-09T07:55:01;6.87;;;5.20;;
69334;SDS011;56477;52.742;15.242;2022-09-09T07:57:30;8.47;;;6.23;;
69334;SDS011;56477;52.742;15.242;2022-09-09T07:59:56;8.07;;;6.43;;
69334;SDS011;56477;52.742;15.242;2022-09-09T08:02:23;7.75;;;6.38;;
69334;SDS011;56477;52.742;15.242;2022-09-09T08:04:49;9.90;;;6.22;;
69334;SDS011;56477;52.742;15.242;2022-09-09T08:07:15;8.10;;;5.80;;
69334;SDS011;56477;52.742;15.242;2022-09-09T08:09:41;9.07;;;6.80;;
69334;SDS011;56477;52.742;15.242;2022-09-09T08:12:07;7.65;;;6.03;;
69334;SDS011;56477;52.742;15.242;2022-09-09T08:14:34;7.40;;;6.60;;
69334;SDS011;56477;52.742;15.242;2022-09-09T08:17:00;7.55;;;5.90;;
69334;SDS011;56477;52.742;15.242;2022-09-09T08:19:26;7.10;;;5.50;;
69334;SDS011;56477;52.742;15.242;2022-09-09T08:21:55;8.10;;;5.60;;
69334;SDS011;56477;52.742;15.242;2022-09-09T08:24:21;7.15;;;5.57;;
69334;SDS011;56477;52.742;15.242;2022-09-09T08:26:48;7.43;;;5.40;;
69334;SDS011;56477;52.742;15.242;2022-09-09T08:29:15;7.70;;;6.03;;
69334;SDS011;56477;52.742;15.242;2022-09-09T08:31:42;6.37;;;5.00;;
69334;SDS011;56477;52.742;15.242;2022-09-09T08:34:10;7.72;;;5.47;;
69334;SDS011;56477;52.742;15.242;2022-09-09T08:36:38;7.88;;;6.13;;
69334;SDS011;56477;52.742;15.242;2022-09-09T08:39:08;6.50;;;5.68;;
69334;SDS011;56477;52.742;15.242;2022-09-09T08:52:31;5.95;;;5.00;;
69334;SDS011;56477;52.742;15.242;2022-09-09T08:55:12;7.45;;;5.30;;
69334;SDS011;56477;52.742;15.242;2022-09-09T08:57:47;6.25;;;5.20;;
69334;SDS011;56477;52.742;15.242;2022-09-09T09:00:19;5.93;;;5.30;;
69334;SDS011;56477;52.742;15.242;2022-09-09T09:08:06;6.05;;;4.65;;
69334;SDS011;56477;52.742;15.242;2022-09-09T09:10:54;7.40;;;5.20;;
69334;SDS011;56477;52.742;15.242;2022-09-09T09:16:03;9.23;;;4.73;;
69334;SDS011;56477;52.742;15.242;2022-09-09T09:18:41;6.87;;;5.03;;
69334;SDS011;56477;52.742;15.242;2022-09-09T09:23:58;7.45;;;5.45;;
69334;SDS011;56477;52.742;15.242;2022-09-09T09:26:30;8.93;;;5.65;;
69334;SDS011;56477;52.742;15.242;2022-09-09T09:29:09;7.90;;;4.90;;
69334;SDS011;56477;52.742;15.242;2022-09-09T09:32:01;7.47;;;5.10;;
69334;SDS011;56477;52.742;15.242;2022-09-09T09:34:28;6.30;;;5.00;;
69334;SDS011;56477;52.742;15.242;2022-09-09T09:36:57;6.60;;;4.15;;
69334;SDS011;56477;52.742;15.242;2022-09-09T09:39:31;6.45;;;4.57;;
69334;SDS011;56477;52.742;15.242;2022-09-09T09:42:10;5.13;;;4.50;;
69334;SDS011;56477;52.742;15.242;2022-09-09T09:44:40;7.95;;;4.50;;
69334;SDS011;56477;52.742;15.242;2022-09-09T09:52:25;3.17;;;1.63;;
69334;SDS011;56477;52.742;15.242;2022-09-09T09:54:54;4.03;;;2.50;;
69334;SDS011;56477;52.742;15.242;2022-09-09T09:57:23;3.95;;;1.80;;
69334;SDS011;56477;52.742;15.242;2022-09-09T10:02:38;4.70;;;1.93;;
69334;SDS011;56477;52.742;15.242;2022-09-09T10:05:13;4.17;;;2.53;;
69334;SDS011;56477;52.742;15.242;2022-09-09T10:07:39;7.10;;;2.35;;
69334;SDS011;56477;52.742;15.242;2022-09-09T10:10:08;4.57;;;2.20;;
69334;SDS011;56477;52.742;15.242;2022-09-09T10:13:39;4.57;;;1.88;;
69334;SDS011;56477;52.742;15.242;2022-09-09T10:21:36;4.38;;;2.17;;
69334;SDS011;56477;52.742;15.242;2022-09-09T10:29:22;4.35;;;2.17;;
69334;SDS011;56477;52.742;15.242;2022-09-09T10:37:04;3.75;;;2.17;;
69334;SDS011;56477;52.742;15.242;2022-09-09T10:39:42;4.55;;;1.95;;
69334;SDS011;56477;52.742;15.242;2022-09-09T10:42:09;4.40;;;2.28;;
69334;SDS011;56477;52.742;15.242;2022-09-09T10:53:02;4.20;;;2.25;;
69334;SDS011;56477;52.742;15.242;2022-09-09T10:55:42;3.38;;;1.38;;
69334;SDS011;56477;52.742;15.242;2022-09-09T10:58:13;3.50;;;1.98;;
69334;SDS011;56477;52.742;15.242;2022-09-09T11:00:55;4.07;;;1.73;;
69334;SDS011;56477;52.742;15.242;2022-09-09T11:03:28;3.63;;;1.70;;
69334;SDS011;56477;52.742;15.242;2022-09-09T11:08:25;3.20;;;1.42;;
69334;SDS011;56477;52.742;15.242;2022-09-09T11:11:14;2.67;;;1.80;;
69334;SDS011;56477;52.742;15.242;2022-09-09T11:16:22;4.20;;;1.80;;
69334;SDS011;56477;52.742;15.242;2022-09-09T11:22:03;5.07;;;1.77;;
69334;SDS011;56477;52.742;15.242;2022-09-09T11:24:34;2.90;;;1.80;;
69334;SDS011;56477;52.742;15.242;2022-09-09T11:40:29;3.88;;;1.80;;
69334;SDS011;56477;52.742;15.242;2022-09-09T11:43:01;3.10;;;1.13;;
69334;SDS011;56477;52.742;15.242;2022-09-09T11:45:34;3.30;;;1.23;;
69334;SDS011;56477;52.742;15.242;2022-09-09T11:48:01;3.08;;;1.70;;
69334;SDS011;56477;52.742;15.242;2022-09-09T11:50:30;2.85;;;2.03;;
69334;SDS011;56477;52.742;15.242;2022-09-09T11:53:05;3.45;;;1.60;;
69334;SDS011;56477;52.742;15.242;2022-09-09T11:55:42;2.65;;;1.38;;
69334;SDS011;56477;52.742;15.242;2022-09-09T12:03:05;3.40;;;1.38;;
69334;SDS011;56477;52.742;15.242;2022-09-09T12:05:52;2.40;;;1.02;;
69334;SDS011;56477;52.742;15.242;2022-09-09T12:08:21;5.72;;;1.80;;
69334;SDS011;56477;52.742;15.242;2022-09-09T12:10:54;3.30;;;1.25;;
69334;SDS011;56477;52.742;15.242;2022-09-09T12:13:22;2.60;;;1.45;;
69334;SDS011;56477;52.742;15.242;2022-09-09T12:15:51;3.75;;;1.10;;
69334;SDS011;56477;52.742;15.242;2022-09-09T12:18:31;3.78;;;2.00;;
69334;SDS011;56477;52.742;15.242;2022-09-09T12:21:02;2.67;;;1.40;;
69334;SDS011;56477;52.742;15.242;2022-09-09T12:26:25;1.67;;;1.55;;
69334;SDS011;56477;52.742;15.242;2022-09-09T12:32:06;2.65;;;1.70;;
69334;SDS011;56477;52.742;15.242;2022-09-09T12:37:35;2.67;;;1.88;;
69334;SDS011;56477;52.742;15.242;2022-09-09T12:40:05;3.10;;;1.53;;
69334;SDS011;56477;52.742;15.242;2022-09-09T12:42:31;3.10;;;1.20;;
69334;SDS011;56477;52.742;15.242;2022-09-09T12:45:02;3.15;;;1.30;;
69334;SDS011;56477;52.742;15.242;2022-09-09T12:50:14;2.13;;;1.10;;
69334;SDS011;56477;52.742;15.242;2022-09-09T12:52:52;2.78;;;1.25;;
69334;SDS011;56477;52.742;15.242;2022-09-09T12:55:23;4.93;;;1.50;;
69334;SDS011;56477;52.742;15.242;2022-09-09T12:57:53;3.78;;;1.60;;
69334;SDS011;56477;52.742;15.242;2022-09-09T13:00:20;2.22;;;1.10;;
69334;SDS011;56477;52.742;15.242;2022-09-09T13:05:19;6.50;;;1.13;;
69334;SDS011;56477;52.742;15.242;2022-09-09T13:08:00;3.05;;;1.20;;
69334;SDS011;56477;52.742;15.242;2022-09-09T13:10:31;5.05;;;1.50;;
69334;SDS011;56477;52.742;15.242;2022-09-09T13:13:00;2.88;;;1.42;;
69334;SDS011;56477;52.742;15.242;2022-09-09T13:15:28;1.60;;;1.20;;
69334;SDS011;56477;52.742;15.242;2022-09-09T13:17:59;3.47;;;1.63;;
69334;SDS011;56477;52.742;15.242;2022-09-09T13:20:29;2.67;;;1.10;;
69334;SDS011;56477;52.742;15.242;2022-09-09T13:22:56;3.07;;;1.87;;
69334;SDS011;56477;52.742;15.242;2022-09-09T13:25:32;3.10;;;1.63;;
69334;SDS011;56477;52.742;15.242;2022-09-09T13:28:04;2.08;;;0.90;;
69334;SDS011;56477;52.742;15.242;2022-09-09T13:30:35;4.65;;;1.83;;
69334;SDS011;56477;52.742;15.242;2022-09-09T13:33:22;4.10;;;1.85;;
69334;SDS011;56477;52.742;15.242;2022-09-09T13:35:58;2.72;;;1.20;;
69334;SDS011;56477;52.742;15.242;2022-09-09T13:38:28;2.95;;;1.60;;
69334;SDS011;56477;52.742;15.242;2022-09-09T13:40:58;4.20;;;2.03;;
69334;SDS011;56477;52.742;15.242;2022-09-09T13:43:27;2.97;;;1.00;;
69334;SDS011;56477;52.742;15.242;2022-09-09T13:45:55;2.73;;;1.47;;
69334;SDS011;56477;52.742;15.242;2022-09-09T13:48:26;4.07;;;2.03;;
69334;SDS011;56477;52.742;15.242;2022-09-09T13:51:00;3.80;;;1.67;;
69334;SDS011;56477;52.742;15.242;2022-09-09T13:53:30;5.30;;;2.85;;
69334;SDS011;56477;52.742;15.242;2022-09-09T13:55:56;3.40;;;2.40;;
69334;SDS011;56477;52.742;15.242;2022-09-09T13:58:23;4.28;;;1.77;;
69334;SDS011;56477;52.742;15.242;2022-09-09T14:00:51;3.58;;;1.55;;
69334;SDS011;56477;52.742;15.242;2022-09-09T14:03:19;3.30;;;1.92;;
69334;SDS011;56477;52.742;15.242;2022-09-09T14:05:45;2.20;;;1.30;;
69334;SDS011;56477;52.742;15.242;2022-09-09T14:08:15;5.28;;;2.08;;
69334;SDS011;56477;52.742;15.242;2022-09-09T14:10:47;3.50;;;1.90;;
69334;SDS011;56477;52.742;15.242;2022-09-09T14:13:13;2.90;;;1.50;;
69334;SDS011;56477;52.742;15.242;2022-09-09T14:15:40;3.53;;;1.75;;
69334;SDS011;56477;52.742;15.242;2022-09-09T14:18:05;3.67;;;1.67;;
69334;SDS011;56477;52.742;15.242;2022-09-09T14:20:35;2.67;;;1.40;;
69334;SDS011;56477;52.742;15.242;2022-09-09T14:23:01;3.47;;;1.45;;
69334;SDS011;56477;52.742;15.242;2022-09-09T14:25:26;3.73;;;1.77;;
69334;SDS011;56477;52.742;15.242;2022-09-09T14:27:52;3.25;;;1.52;;
69334;SDS011;56477;52.742;15.242;2022-09-09T14:30:18;6.00;;;1.67;;
69334;SDS011;56477;52.742;15.242;2022-09-09T14:32:44;5.40;;;1.80;;
69334;SDS011;56477;52.742;15.242;2022-09-09T14:35:10;3.50;;;1.27;;
69334;SDS011;56477;52.742;15.242;2022-09-09T14:37:37;12.77;;;2.35;;
69334;SDS011;56477;52.742;15.242;2022-09-09T14:40:04;6.53;;;1.52;;
69334;SDS011;56477;52.742;15.242;2022-09-09T14:42:31;6.82;;;1.55;;
69334;SDS011;56477;52.742;15.242;2022-09-09T14:44:56;3.73;;;1.20;;
69334;SDS011;56477;52.742;15.242;2022-09-09T14:47:22;3.95;;;1.58;;
69334;SDS011;56477;52.742;15.242;2022-09-09T14:49:48;4.93;;;1.60;;
69334;SDS011;56477;52.742;15.242;2022-09-09T14:52:15;4.32;;;1.25;;
69334;SDS011;56477;52.742;15.242;2022-09-09T14:54:41;5.07;;;1.50;;
69334;SDS011;56477;52.742;15.242;2022-09-09T14:57:08;2.83;;;1.27;;
69334;SDS011;56477;52.742;15.242;2022-09-09T14:59:33;2.47;;;1.38;;
69334;SDS011;56477;52.742;15.242;2022-09-09T15:01:59;3.20;;;1.38;;
69334;SDS011;56477;52.742;15.242;2022-09-09T15:04:29;4.43;;;1.42;;
69334;SDS011;56477;52.742;15.242;2022-09-09T15:06:55;3.97;;;1.50;;
69334;SDS011;56477;52.742;15.242;2022-09-09T15:09:21;3.70;;;2.03;;
69334;SDS011;56477;52.742;15.242;2022-09-09T15:11:48;4.10;;;1.83;;
69334;SDS011;56477;52.742;15.242;2022-09-09T15:14:14;3.15;;;1.67;;
69334;SDS011;56477;52.742;15.242;2022-09-09T15:16:40;7.77;;;2.40;;
69334;SDS011;56477;52.742;15.242;2022-09-09T15:19:07;4.15;;;1.90;;
69334;SDS011;56477;52.742;15.242;2022-09-09T15:21:35;3.92;;;1.42;;
69334;SDS011;56477;52.742;15.242;2022-09-09T15:24:02;4.85;;;1.73;;
69334;SDS011;56477;52.742;15.242;2022-09-09T15:26:29;4.15;;;1.90;;
69334;SDS011;56477;52.742;15.242;2022-09-09T15:28:55;4.03;;;2.03;;
69334;SDS011;56477;52.742;15.242;2022-09-09T15:31:25;4.60;;;1.80;;
69334;SDS011;56477;52.742;15.242;2022-09-09T15:33:59;5.03;;;1.90;;
69334;SDS011;56477;52.742;15.242;2022-09-09T15:38:59;5.72;;;2.78;;
69334;SDS011;56477;52.742;15.242;2022-09-09T15:41:25;4.37;;;2.47;;
69334;SDS011;56477;52.742;15.242;2022-09-09T15:43:53;4.75;;;1.77;;
69334;SDS011;56477;52.742;15.242;2022-09-09T15:49:14;4.55;;;2.13;;
69334;SDS011;56477;52.742;15.242;2022-09-09T15:51:47;7.68;;;2.28;;
69334;SDS011;56477;52.742;15.242;2022-09-09T15:54:17;8.85;;;1.80;;
69334;SDS011;56477;52.742;15.242;2022-09-09T15:56:46;4.93;;;1.50;;
69334;SDS011;56477;52.742;15.242;2022-09-09T15:59:15;4.53;;;1.60;;
69334;SDS011;56477;52.742;15.242;2022-09-09T16:01:41;6.47;;;1.80;;
69334;SDS011;56477;52.742;15.242;2022-09-09T16:04:09;4.63;;;1.95;;
69334;SDS011;56477;52.742;15.242;2022-09-09T16:06:35;5.95;;;2.08;;
69334;SDS011;56477;52.742;15.242;2022-09-09T16:09:02;6.07;;;2.07;;
69334;SDS011;56477;52.742;15.242;2022-09-09T16:11:30;8.13;;;3.13;;
69334;SDS011;56477;52.742;15.242;2022-09-09T16:13:59;5.82;;;1.88;;
69334;SDS011;56477;52.742;15.242;2022-09-09T16:16:26;6.63;;;2.75;;
69334;SDS011;56477;52.742;15.242;2022-09-09T16:18:54;3.75;;;1.50;;
69334;SDS011;56477;52.742;15.242;2022-09-09T16:21:25;7.40;;;1.92;;
69334;SDS011;56477;52.742;15.242;2022-09-09T16:23:55;5.47;;;1.80;;
69334;SDS011;56477;52.742;15.242;2022-09-09T16:26:22;5.47;;;2.17;;
69334;SDS011;56477;52.742;15.242;2022-09-09T16:28:48;4.88;;;2.10;;
69334;SDS011;56477;52.742;15.242;2022-09-09T16:31:16;5.18;;;2.35;;
69334;SDS011;56477;52.742;15.242;2022-09-09T16:33:44;9.68;;;2.50;;
69334;SDS011;56477;52.742;15.242;2022-09-09T16:36:14;6.30;;;2.60;;
69334;SDS011;56477;52.742;15.242;2022-09-09T16:38:42;7.03;;;2.40;;
69334;SDS011;56477;52.742;15.242;2022-09-09T16:41:08;7.82;;;3.95;;
69334;SDS011;56477;52.742;15.242;2022-09-09T16:43:36;7.93;;;3.30;;
69334;SDS011;56477;52.742;15.242;2022-09-09T16:46:03;28.88;;;11.93;;
69334;SDS011;56477;52.742;15.242;2022-09-09T16:48:37;6.80;;;2.60;;
69334;SDS011;56477;52.742;15.242;2022-09-09T16:51:06;7.93;;;2.38;;
69334;SDS011;56477;52.742;15.242;2022-09-09T16:53:35;10.27;;;5.63;;
69334;SDS011;56477;52.742;15.242;2022-09-09T16:56:05;7.47;;;3.10;;
69334;SDS011;56477;52.742;15.242;2022-09-09T16:58:32;5.73;;;3.03;;
69334;SDS011;56477;52.742;15.242;2022-09-09T17:00:59;5.82;;;2.67;;
69334;SDS011;56477;52.742;15.242;2022-09-09T17:03:27;4.95;;;2.17;;
69334;SDS011;56477;52.742;15.242;2022-09-09T17:05:53;4.82;;;2.00;;
69334;SDS011;56477;52.742;15.242;2022-09-09T17:08:19;4.87;;;2.40;;
69334;SDS011;56477;52.742;15.242;2022-09-09T17:10:45;8.55;;;3.10;;